sensor_id;sensor_type;location;lat;lon;timestamp;pressure;altitude;pressure_sealevel;temperature
68012;BMP180;54794;48.348;7.878;2022-11-11T00:01:12;100475.00;;;9.40
68012;BMP180;54794;48.348;7.878;2022-11-11T00:03:41;100481.00;;;9.20
68012;BMP180;54794;48.348;7.878;2022-11-11T00:06:12;100480.00;;;9.20
68012;BMP180;54794;48.348;7.878;2022-11-11T00:08:40;100481.00;;;9.40
68012;BMP180;54794;48.348;7.878;2022-11-11T00:11:12;100491.00;;;9.50
68012;BMP180;54794;48.348;7.878;2022-11-11T00:13:41;100488.00;;;9.50
68012;BMP180;54794;48.348;7.878;2022-11-11T00:16:11;100495.00;;;9.40
68012;BMP180;54794;48.348;7.878;2022-11-11T00:18:39;100497.00;;;9.30
68012;BMP180;54794;48.348;7.878;2022-11-11T00:21:30;100494.00;;;9.10
68012;BMP180;54794;48.348;7.878;2022-11-11T00:24:28;100507.00;;;9.40
68012;BMP180;54794;48.348;7.878;2022-11-11T00:27:14;100507.00;;;9.40
68012;BMP180;54794;48.348;7.878;2022-11-11T00:29:46;100512.00;;;9.40
68012;BMP180;54794;48.348;7.878;2022-11-11T00:32:14;100517.00;;;9.20
68012;BMP180;54794;48.348;7.878;2022-11-11T00:34:55;100512.00;;;9.00
68012;BMP180;54794;48.348;7.878;2022-11-11T00:37:45;100506.00;;;9.20
68012;BMP180;54794;48.348;7.878;2022-11-11T00:40:12;100498.00;;;9.40
68012;BMP180;54794;48.348;7.878;2022-11-11T00:42:40;100499.00;;;9.40
68012;BMP180;54794;48.348;7.878;2022-11-11T00:45:08;100499.00;;;9.30
68012;BMP180;54794;48.348;7.878;2022-11-11T00:47:35;100499.00;;;9.40
68012;BMP180;54794;48.348;7.878;2022-11-11T00:50:26;100507.00;;;8.90
68012;BMP180;54794;48.348;7.878;2022-11-11T00:53:21;100504.00;;;8.90
68012;BMP180;54794;48.348;7.878;2022-11-11T00:55:54;100508.00;;;8.90
68012;BMP180;54794;48.348;7.878;2022-11-11T00:58:23;100514.00;;;8.70
68012;BMP180;54794;48.348;7.878;2022-11-11T01:00:51;100518.00;;;8.80
68012;BMP180;54794;48.348;7.878;2022-11-11T01:03:22;100511.00;;;8.80
68012;BMP180;54794;48.348;7.878;2022-11-11T01:05:49;100519.00;;;9.00
68012;BMP180;54794;48.348;7.878;2022-11-11T01:08:16;100513.00;;;9.00
68012;BMP180;54794;48.348;7.878;2022-11-11T01:10:43;100538.00;;;8.60
68012;BMP180;54794;48.348;7.878;2022-11-11T01:13:16;100540.00;;;8.60
68012;BMP180;54794;48.348;7.878;2022-11-11T01:15:48;100540.00;;;8.90
68012;BMP180;54794;48.348;7.878;2022-11-11T01:18:22;100545.00;;;8.70
68012;BMP180;54794;48.348;7.878;2022-11-11T01:21:11;100542.00;;;8.50
68012;BMP180;54794;48.348;7.878;2022-11-11T01:23:41;100536.00;;;8.50
68012;BMP180;54794;48.348;7.878;2022-11-11T01:26:25;100532.00;;;8.50
68012;BMP180;54794;48.348;7.878;2022-11-11T01:28:57;100536.00;;;8.60
68012;BMP180;54794;48.348;7.878;2022-11-11T01:31:26;100527.00;;;8.80
68012;BMP180;54794;48.348;7.878;2022-11-11T01:33:53;100535.00;;;8.80
68012;BMP180;54794;48.348;7.878;2022-11-11T01:36:27;100536.00;;;8.80
68012;BMP180;54794;48.348;7.878;2022-11-11T01:38:58;100529.00;;;9.00
68012;BMP180;54794;48.348;7.878;2022-11-11T01:41:30;100533.00;;;8.60
68012;BMP180;54794;48.348;7.878;2022-11-11T01:47:09;100531.00;;;8.80
68012;BMP180;54794;48.348;7.878;2022-11-11T01:49:57;100530.00;;;8.90
68012;BMP180;54794;48.348;7.878;2022-11-11T01:52:36;100533.00;;;8.30
68012;BMP180;54794;48.348;7.878;2022-11-11T01:55:14;100541.00;;;8.30
68012;BMP180;54794;48.348;7.878;2022-11-11T01:57:55;100544.00;;;8.50
68012;BMP180;54794;48.348;7.878;2022-11-11T02:00:23;100542.00;;;8.50
68012;BMP180;54794;48.348;7.878;2022-11-11T02:03:07;100545.00;;;8.50
68012;BMP180;54794;48.348;7.878;2022-11-11T02:05:36;100537.00;;;8.70
68012;BMP180;54794;48.348;7.878;2022-11-11T02:08:18;100548.00;;;8.60
68012;BMP180;54794;48.348;7.878;2022-11-11T02:11:17;100539.00;;;8.40
68012;BMP180;54794;48.348;7.878;2022-11-11T02:14:07;100539.00;;;8.50
68012;BMP180;54794;48.348;7.878;2022-11-11T02:16:53;100548.00;;;8.50
68012;BMP180;54794;48.348;7.878;2022-11-11T02:22:11;100546.00;;;8.40
68012;BMP180;54794;48.348;7.878;2022-11-11T02:24:40;100543.00;;;8.30
68012;BMP180;54794;48.348;7.878;2022-11-11T02:27:11;100538.00;;;8.50
68012;BMP180;54794;48.348;7.878;2022-11-11T02:29:41;100537.00;;;8.50
68012;BMP180;54794;48.348;7.878;2022-11-11T02:32:09;100542.00;;;8.40
68012;BMP180;54794;48.348;7.878;2022-11-11T02:34:36;100541.00;;;8.50
68012;BMP180;54794;48.348;7.878;2022-11-11T02:37:07;100550.00;;;8.60
68012;BMP180;54794;48.348;7.878;2022-11-11T02:39:41;100551.00;;;8.40
68012;BMP180;54794;48.348;7.878;2022-11-11T02:42:30;100553.00;;;8.40
68012;BMP180;54794;48.348;7.878;2022-11-11T02:44:58;100547.00;;;8.40
68012;BMP180;54794;48.348;7.878;2022-11-11T02:47:25;100542.00;;;8.20
68012;BMP180;54794;48.348;7.878;2022-11-11T02:49:53;100549.00;;;8.30
68012;BMP180;54794;48.348;7.878;2022-11-11T02:52:20;100552.00;;;8.10
68012;BMP180;54794;48.348;7.878;2022-11-11T02:54:47;100553.00;;;8.50
68012;BMP180;54794;48.348;7.878;2022-11-11T02:57:15;100551.00;;;8.40
68012;BMP180;54794;48.348;7.878;2022-11-11T02:59:43;100552.00;;;8.40
68012;BMP180;54794;48.348;7.878;2022-11-11T03:02:10;100556.00;;;8.40
68012;BMP180;54794;48.348;7.878;2022-11-11T03:04:38;100555.00;;;8.50
68012;BMP180;54794;48.348;7.878;2022-11-11T03:07:05;100554.00;;;8.40
68012;BMP180;54794;48.348;7.878;2022-11-11T03:09:32;100550.00;;;8.50
68012;BMP180;54794;48.348;7.878;2022-11-11T03:11:59;100548.00;;;8.40
68012;BMP180;54794;48.348;7.878;2022-11-11T03:14:26;100549.00;;;8.20
68012;BMP180;54794;48.348;7.878;2022-11-11T03:16:54;100552.00;;;8.30
68012;BMP180;54794;48.348;7.878;2022-11-11T03:19:39;100552.00;;;8.30
68012;BMP180;54794;48.348;7.878;2022-11-11T03:22:06;100559.00;;;8.30
68012;BMP180;54794;48.348;7.878;2022-11-11T03:24:53;100557.00;;;8.40
68012;BMP180;54794;48.348;7.878;2022-11-11T03:27:41;100565.00;;;8.30
68012;BMP180;54794;48.348;7.878;2022-11-11T03:30:08;100563.00;;;8.30
68012;BMP180;54794;48.348;7.878;2022-11-11T03:32:35;100565.00;;;8.50
68012;BMP180;54794;48.348;7.878;2022-11-11T03:35:02;100559.00;;;8.50
68012;BMP180;54794;48.348;7.878;2022-11-11T03:37:29;100564.00;;;8.50
68012;BMP180;54794;48.348;7.878;2022-11-11T03:40:14;100568.00;;;8.60
68012;BMP180;54794;48.348;7.878;2022-11-11T03:42:41;100566.00;;;8.40
68012;BMP180;54794;48.348;7.878;2022-11-11T03:45:09;100576.00;;;8.30
68012;BMP180;54794;48.348;7.878;2022-11-11T03:47:36;100571.00;;;8.30
68012;BMP180;54794;48.348;7.878;2022-11-11T03:50:03;100560.00;;;8.00
68012;BMP180;54794;48.348;7.878;2022-11-11T03:52:30;100564.00;;;8.20
68012;BMP180;54794;48.348;7.878;2022-11-11T03:54:57;100558.00;;;8.20
68012;BMP180;54794;48.348;7.878;2022-11-11T03:57:24;100565.00;;;8.20
68012;BMP180;54794;48.348;7.878;2022-11-11T03:59:56;100567.00;;;8.20
68012;BMP180;54794;48.348;7.878;2022-11-11T04:02:23;100557.00;;;8.20
68012;BMP180;54794;48.348;7.878;2022-11-11T04:05:08;100556.00;;;8.30
68012;BMP180;54794;48.348;7.878;2022-11-11T04:07:54;100544.00;;;8.30
68012;BMP180;54794;48.348;7.878;2022-11-11T04:10:39;100534.00;;;8.30
68012;BMP180;54794;48.348;7.878;2022-11-11T04:13:06;100545.00;;;8.30
68012;BMP180;54794;48.348;7.878;2022-11-11T04:15:52;100539.00;;;8.00
68012;BMP180;54794;48.348;7.878;2022-11-11T04:18:32;100547.00;;;7.90
68012;BMP180;54794;48.348;7.878;2022-11-11T04:21:18;100549.00;;;8.10
68012;BMP180;54794;48.348;7.878;2022-11-11T04:24:05;100553.00;;;8.00
68012;BMP180;54794;48.348;7.878;2022-11-11T04:26:55;100546.00;;;7.90
68012;BMP180;54794;48.348;7.878;2022-11-11T04:29:22;100542.00;;;7.80
68012;BMP180;54794;48.348;7.878;2022-11-11T04:32:02;100544.00;;;8.00
68012;BMP180;54794;48.348;7.878;2022-11-11T04:34:51;100544.00;;;8.00
68012;BMP180;54794;48.348;7.878;2022-11-11T04:37:20;100553.00;;;8.00
68012;BMP180;54794;48.348;7.878;2022-11-11T04:39:47;100564.00;;;8.10
68012;BMP180;54794;48.348;7.878;2022-11-11T04:42:33;100562.00;;;8.00
68012;BMP180;54794;48.348;7.878;2022-11-11T04:45:01;100571.00;;;8.10
68012;BMP180;54794;48.348;7.878;2022-11-11T04:48:04;100573.00;;;8.00
68012;BMP180;54794;48.348;7.878;2022-11-11T04:50:40;100579.00;;;8.00
68012;BMP180;54794;48.348;7.878;2022-11-11T04:53:11;100582.00;;;8.20
68012;BMP180;54794;48.348;7.878;2022-11-11T04:55:40;100592.00;;;8.40
68012;BMP180;54794;48.348;7.878;2022-11-11T04:58:29;100602.00;;;7.70
68012;BMP180;54794;48.348;7.878;2022-11-11T05:00:56;100612.00;;;7.60
68012;BMP180;54794;48.348;7.878;2022-11-11T05:03:23;100613.00;;;7.80
68012;BMP180;54794;48.348;7.878;2022-11-11T05:05:56;100624.00;;;7.60
68012;BMP180;54794;48.348;7.878;2022-11-11T05:08:47;100618.00;;;7.90
68012;BMP180;54794;48.348;7.878;2022-11-11T05:13:55;100613.00;;;7.90
68012;BMP180;54794;48.348;7.878;2022-11-11T05:16:48;100621.00;;;8.10
68012;BMP180;54794;48.348;7.878;2022-11-11T05:19:34;100610.00;;;8.30
68012;BMP180;54794;48.348;7.878;2022-11-11T05:22:29;100620.00;;;8.30
68012;BMP180;54794;48.348;7.878;2022-11-11T05:24:56;100638.00;;;8.40
68012;BMP180;54794;48.348;7.878;2022-11-11T05:27:42;100641.00;;;8.40
68012;BMP180;54794;48.348;7.878;2022-11-11T05:30:12;100636.00;;;8.20
68012;BMP180;54794;48.348;7.878;2022-11-11T05:32:40;100630.00;;;8.20
68012;BMP180;54794;48.348;7.878;2022-11-11T05:35:09;100636.00;;;7.50
68012;BMP180;54794;48.348;7.878;2022-11-11T05:37:36;100632.00;;;8.00
68012;BMP180;54794;48.348;7.878;2022-11-11T05:40:04;100628.00;;;8.10
68012;BMP180;54794;48.348;7.878;2022-11-11T05:42:31;100635.00;;;7.50
68012;BMP180;54794;48.348;7.878;2022-11-11T05:44:58;100629.00;;;8.00
68012;BMP180;54794;48.348;7.878;2022-11-11T05:47:26;100633.00;;;8.30
68012;BMP180;54794;48.348;7.878;2022-11-11T05:49:53;100640.00;;;8.10
68012;BMP180;54794;48.348;7.878;2022-11-11T05:52:20;100633.00;;;8.10
68012;BMP180;54794;48.348;7.878;2022-11-11T05:54:46;100629.00;;;8.10
68012;BMP180;54794;48.348;7.878;2022-11-11T05:57:13;100642.00;;;8.20
68012;BMP180;54794;48.348;7.878;2022-11-11T05:59:40;100651.00;;;8.10
68012;BMP180;54794;48.348;7.878;2022-11-11T06:02:08;100652.00;;;8.10
68012;BMP180;54794;48.348;7.878;2022-11-11T06:04:35;100661.00;;;8.10
68012;BMP180;54794;48.348;7.878;2022-11-11T06:07:02;100667.00;;;8.20
68012;BMP180;54794;48.348;7.878;2022-11-11T06:09:29;100679.00;;;8.10
68012;BMP180;54794;48.348;7.878;2022-11-11T06:11:56;100680.00;;;8.30
68012;BMP180;54794;48.348;7.878;2022-11-11T06:14:23;100685.00;;;7.80
68012;BMP180;54794;48.348;7.878;2022-11-11T06:16:49;100676.00;;;8.00
68012;BMP180;54794;48.348;7.878;2022-11-11T06:19:16;100680.00;;;7.90
68012;BMP180;54794;48.348;7.878;2022-11-11T06:21:43;100682.00;;;8.00
68012;BMP180;54794;48.348;7.878;2022-11-11T06:24:26;100689.00;;;7.50
68012;BMP180;54794;48.348;7.878;2022-11-11T06:26:56;100685.00;;;7.90
68012;BMP180;54794;48.348;7.878;2022-11-11T06:29:23;100689.00;;;7.80
68012;BMP180;54794;48.348;7.878;2022-11-11T06:31:50;100693.00;;;8.10
68012;BMP180;54794;48.348;7.878;2022-11-11T06:34:17;100690.00;;;8.20
68012;BMP180;54794;48.348;7.878;2022-11-11T06:36:44;100698.00;;;8.00
68012;BMP180;54794;48.348;7.878;2022-11-11T06:39:10;100696.00;;;7.80
68012;BMP180;54794;48.348;7.878;2022-11-11T06:41:37;100694.00;;;7.50
68012;BMP180;54794;48.348;7.878;2022-11-11T06:44:04;100709.00;;;7.30
68012;BMP180;54794;48.348;7.878;2022-11-11T06:46:31;100705.00;;;7.00
68012;BMP180;54794;48.348;7.878;2022-11-11T06:48:58;100714.00;;;6.70
68012;BMP180;54794;48.348;7.878;2022-11-11T06:51:24;100713.00;;;6.80
68012;BMP180;54794;48.348;7.878;2022-11-11T06:53:51;100712.00;;;6.80
68012;BMP180;54794;48.348;7.878;2022-11-11T06:56:18;100704.00;;;6.90
68012;BMP180;54794;48.348;7.878;2022-11-11T06:58:45;100709.00;;;6.90
68012;BMP180;54794;48.348;7.878;2022-11-11T07:01:13;100714.00;;;7.30
68012;BMP180;54794;48.348;7.878;2022-11-11T07:03:40;100711.00;;;7.10
68012;BMP180;54794;48.348;7.878;2022-11-11T07:06:07;100705.00;;;7.30
68012;BMP180;54794;48.348;7.878;2022-11-11T07:08:34;100708.00;;;7.50
68012;BMP180;54794;48.348;7.878;2022-11-11T07:11:01;100704.00;;;7.50
68012;BMP180;54794;48.348;7.878;2022-11-11T07:13:38;100716.00;;;7.20
68012;BMP180;54794;48.348;7.878;2022-11-11T07:16:05;100727.00;;;7.30
68012;BMP180;54794;48.348;7.878;2022-11-11T07:18:32;100719.00;;;7.50
68012;BMP180;54794;48.348;7.878;2022-11-11T07:20:59;100718.00;;;7.70
68012;BMP180;54794;48.348;7.878;2022-11-11T07:23:26;100724.00;;;7.70
68012;BMP180;54794;48.348;7.878;2022-11-11T07:25:53;100722.00;;;7.70
68012;BMP180;54794;48.348;7.878;2022-11-11T07:28:19;100735.00;;;7.90
68012;BMP180;54794;48.348;7.878;2022-11-11T07:30:47;100725.00;;;8.10
68012;BMP180;54794;48.348;7.878;2022-11-11T07:33:15;100726.00;;;8.10
68012;BMP180;54794;48.348;7.878;2022-11-11T07:35:50;100734.00;;;8.10
68012;BMP180;54794;48.348;7.878;2022-11-11T07:38:17;100728.00;;;8.20
68012;BMP180;54794;48.348;7.878;2022-11-11T07:40:45;100722.00;;;8.20
68012;BMP180;54794;48.348;7.878;2022-11-11T07:43:12;100728.00;;;8.20
68012;BMP180;54794;48.348;7.878;2022-11-11T07:45:40;100723.00;;;8.20
68012;BMP180;54794;48.348;7.878;2022-11-11T07:48:08;100731.00;;;8.30
68012;BMP180;54794;48.348;7.878;2022-11-11T07:50:35;100730.00;;;8.00
68012;BMP180;54794;48.348;7.878;2022-11-11T07:53:03;100730.00;;;8.30
68012;BMP180;54794;48.348;7.878;2022-11-11T07:55:31;100733.00;;;8.40
68012;BMP180;54794;48.348;7.878;2022-11-11T07:57:59;100731.00;;;8.50
68012;BMP180;54794;48.348;7.878;2022-11-11T08:00:27;100731.00;;;8.40
68012;BMP180;54794;48.348;7.878;2022-11-11T08:02:55;100726.00;;;8.60
68012;BMP180;54794;48.348;7.878;2022-11-11T08:05:25;100737.00;;;8.60
68012;BMP180;54794;48.348;7.878;2022-11-11T08:07:53;100735.00;;;8.60
68012;BMP180;54794;48.348;7.878;2022-11-11T08:10:21;100733.00;;;8.40
68012;BMP180;54794;48.348;7.878;2022-11-11T08:12:55;100737.00;;;8.50
68012;BMP180;54794;48.348;7.878;2022-11-11T08:15:41;100738.00;;;8.50
68012;BMP180;54794;48.348;7.878;2022-11-11T08:18:10;100745.00;;;8.70
68012;BMP180;54794;48.348;7.878;2022-11-11T08:20:37;100734.00;;;8.70
68012;BMP180;54794;48.348;7.878;2022-11-11T08:23:11;100731.00;;;8.80
68012;BMP180;54794;48.348;7.878;2022-11-11T08:26:05;100739.00;;;8.70
68012;BMP180;54794;48.348;7.878;2022-11-11T08:28:33;100744.00;;;8.80
68012;BMP180;54794;48.348;7.878;2022-11-11T08:31:01;100743.00;;;8.80
68012;BMP180;54794;48.348;7.878;2022-11-11T08:33:30;100736.00;;;9.00
68012;BMP180;54794;48.348;7.878;2022-11-11T08:36:00;100733.00;;;9.10
68012;BMP180;54794;48.348;7.878;2022-11-11T08:38:27;100731.00;;;9.20
68012;BMP180;54794;48.348;7.878;2022-11-11T08:40:59;100731.00;;;9.20
68012;BMP180;54794;48.348;7.878;2022-11-11T08:43:27;100723.00;;;9.30
68012;BMP180;54794;48.348;7.878;2022-11-11T08:46:04;100733.00;;;9.30
68012;BMP180;54794;48.348;7.878;2022-11-11T08:48:32;100722.00;;;9.30
68012;BMP180;54794;48.348;7.878;2022-11-11T08:50:59;100728.00;;;9.40
68012;BMP180;54794;48.348;7.878;2022-11-11T08:53:27;100725.00;;;9.50
68012;BMP180;54794;48.348;7.878;2022-11-11T08:55:54;100721.00;;;9.60
68012;BMP180;54794;48.348;7.878;2022-11-11T08:58:21;100717.00;;;9.60
68012;BMP180;54794;48.348;7.878;2022-11-11T09:00:48;100715.00;;;9.50
68012;BMP180;54794;48.348;7.878;2022-11-11T09:03:15;100705.00;;;9.60
68012;BMP180;54794;48.348;7.878;2022-11-11T09:05:42;100706.00;;;9.70
68012;BMP180;54794;48.348;7.878;2022-11-11T09:08:09;100717.00;;;9.80
68012;BMP180;54794;48.348;7.878;2022-11-11T09:10:36;100714.00;;;9.80
68012;BMP180;54794;48.348;7.878;2022-11-11T09:13:04;100715.00;;;9.90
68012;BMP180;54794;48.348;7.878;2022-11-11T09:15:32;100708.00;;;9.80
68012;BMP180;54794;48.348;7.878;2022-11-11T09:17:59;100704.00;;;9.90
68012;BMP180;54794;48.348;7.878;2022-11-11T09:20:27;100708.00;;;10.00
68012;BMP180;54794;48.348;7.878;2022-11-11T09:22:54;100715.00;;;10.00
68012;BMP180;54794;48.348;7.878;2022-11-11T09:25:21;100709.00;;;10.00
68012;BMP180;54794;48.348;7.878;2022-11-11T09:27:57;100712.00;;;10.20
68012;BMP180;54794;48.348;7.878;2022-11-11T09:30:27;100713.00;;;10.30
68012;BMP180;54794;48.348;7.878;2022-11-11T09:33:00;100716.00;;;10.40
68012;BMP180;54794;48.348;7.878;2022-11-11T09:35:27;100708.00;;;10.40
68012;BMP180;54794;48.348;7.878;2022-11-11T09:37:56;100718.00;;;10.50
68012;BMP180;54794;48.348;7.878;2022-11-11T09:43:30;100713.00;;;10.50
68012;BMP180;54794;48.348;7.878;2022-11-11T09:49:18;100716.00;;;10.70
68012;BMP180;54794;48.348;7.878;2022-11-11T09:51:59;100719.00;;;10.80
68012;BMP180;54794;48.348;7.878;2022-11-11T09:54:42;100728.00;;;10.80
68012;BMP180;54794;48.348;7.878;2022-11-11T09:57:24;100707.00;;;11.00
68012;BMP180;54794;48.348;7.878;2022-11-11T09:59:58;100708.00;;;11.10
68012;BMP180;54794;48.348;7.878;2022-11-11T10:02:39;100706.00;;;11.10
68012;BMP180;54794;48.348;7.878;2022-11-11T10:05:12;100696.00;;;11.10
68012;BMP180;54794;48.348;7.878;2022-11-11T10:08:00;100698.00;;;11.00
68012;BMP180;54794;48.348;7.878;2022-11-11T10:10:38;100697.00;;;11.10
68012;BMP180;54794;48.348;7.878;2022-11-11T10:13:36;100692.00;;;11.20
68012;BMP180;54794;48.348;7.878;2022-11-11T10:22:20;100696.00;;;11.10
68012;BMP180;54794;48.348;7.878;2022-11-11T10:27:43;100693.00;;;11.40
68012;BMP180;54794;48.348;7.878;2022-11-11T10:30:28;100693.00;;;11.40
68012;BMP180;54794;48.348;7.878;2022-11-11T10:33:09;100679.00;;;11.30
68012;BMP180;54794;48.348;7.878;2022-11-11T10:35:39;100677.00;;;11.30
68012;BMP180;54794;48.348;7.878;2022-11-11T10:40:54;100682.00;;;11.20
68012;BMP180;54794;48.348;7.878;2022-11-11T10:43:26;100683.00;;;11.10
68012;BMP180;54794;48.348;7.878;2022-11-11T10:46:14;100674.00;;;11.30
68012;BMP180;54794;48.348;7.878;2022-11-11T10:48:53;100678.00;;;11.40
68012;BMP180;54794;48.348;7.878;2022-11-11T10:51:27;100681.00;;;11.30
68012;BMP180;54794;48.348;7.878;2022-11-11T10:57:12;100663.00;;;11.60
68012;BMP180;54794;48.348;7.878;2022-11-11T10:59:59;100671.00;;;11.30
68012;BMP180;54794;48.348;7.878;2022-11-11T11:02:58;100667.00;;;11.50
68012;BMP180;54794;48.348;7.878;2022-11-11T11:08:50;100655.00;;;11.90
68012;BMP180;54794;48.348;7.878;2022-11-11T11:11:38;100659.00;;;11.80
68012;BMP180;54794;48.348;7.878;2022-11-11T11:14:18;100662.00;;;11.90
68012;BMP180;54794;48.348;7.878;2022-11-11T11:16:50;100661.00;;;11.90
68012;BMP180;54794;48.348;7.878;2022-11-11T11:19:24;100655.00;;;11.90
68012;BMP180;54794;48.348;7.878;2022-11-11T11:22:00;100652.00;;;12.10
68012;BMP180;54794;48.348;7.878;2022-11-11T11:28:25;100639.00;;;12.10
68012;BMP180;54794;48.348;7.878;2022-11-11T11:34:55;100643.00;;;12.30
68012;BMP180;54794;48.348;7.878;2022-11-11T11:37:25;100647.00;;;12.00
68012;BMP180;54794;48.348;7.878;2022-11-11T11:40:06;100651.00;;;12.20
68012;BMP180;54794;48.348;7.878;2022-11-11T11:42:37;100653.00;;;12.20
68012;BMP180;54794;48.348;7.878;2022-11-11T11:45:30;100653.00;;;11.80
68012;BMP180;54794;48.348;7.878;2022-11-11T11:48:48;100652.00;;;11.90
68012;BMP180;54794;48.348;7.878;2022-11-11T11:51:27;100643.00;;;12.00
68012;BMP180;54794;48.348;7.878;2022-11-11T11:56:49;100656.00;;;11.90
68012;BMP180;54794;48.348;7.878;2022-11-11T11:59:42;100658.00;;;12.20
68012;BMP180;54794;48.348;7.878;2022-11-11T12:17:09;100645.00;;;12.50
68012;BMP180;54794;48.348;7.878;2022-11-11T12:20:03;100629.00;;;12.30
68012;BMP180;54794;48.348;7.878;2022-11-11T12:50:18;100621.00;;;13.00
68012;BMP180;54794;48.348;7.878;2022-11-11T12:58:29;100616.00;;;13.40
68012;BMP180;54794;48.348;7.878;2022-11-11T13:01:32;100607.00;;;13.00
68012;BMP180;54794;48.348;7.878;2022-11-11T13:07:34;100607.00;;;13.40
68012;BMP180;54794;48.348;7.878;2022-11-11T13:16:00;100601.00;;;13.30
68012;BMP180;54794;48.348;7.878;2022-11-11T13:18:43;100606.00;;;13.50
68012;BMP180;54794;48.348;7.878;2022-11-11T13:21:19;100609.00;;;13.20
68012;BMP180;54794;48.348;7.878;2022-11-11T13:23:48;100610.00;;;13.30
68012;BMP180;54794;48.348;7.878;2022-11-11T13:26:31;100620.00;;;13.50
68012;BMP180;54794;48.348;7.878;2022-11-11T13:32:19;100615.00;;;13.70
68012;BMP180;54794;48.348;7.878;2022-11-11T13:34:49;100611.00;;;14.10
68012;BMP180;54794;48.348;7.878;2022-11-11T13:37:33;100611.00;;;14.10
68012;BMP180;54794;48.348;7.878;2022-11-11T13:40:07;100617.00;;;14.10
68012;BMP180;54794;48.348;7.878;2022-11-11T13:42:45;100611.00;;;13.80
68012;BMP180;54794;48.348;7.878;2022-11-11T13:45:25;100608.00;;;14.20
68012;BMP180;54794;48.348;7.878;2022-11-11T13:47:55;100603.00;;;13.80
68012;BMP180;54794;48.348;7.878;2022-11-11T13:50:43;100609.00;;;13.70
68012;BMP180;54794;48.348;7.878;2022-11-11T13:53:30;100599.00;;;14.10
68012;BMP180;54794;48.348;7.878;2022-11-11T13:56:02;100603.00;;;14.00
68012;BMP180;54794;48.348;7.878;2022-11-11T13:58:37;100609.00;;;14.30
68012;BMP180;54794;48.348;7.878;2022-11-11T14:01:10;100608.00;;;14.30
68012;BMP180;54794;48.348;7.878;2022-11-11T14:11:28;100613.00;;;13.60
68012;BMP180;54794;48.348;7.878;2022-11-11T14:13:58;100615.00;;;13.60
68012;BMP180;54794;48.348;7.878;2022-11-11T14:24:45;100611.00;;;13.70
68012;BMP180;54794;48.348;7.878;2022-11-11T14:27:20;100615.00;;;13.40
68012;BMP180;54794;48.348;7.878;2022-11-11T14:29:53;100617.00;;;13.40
68012;BMP180;54794;48.348;7.878;2022-11-11T14:35:25;100610.00;;;13.40
68012;BMP180;54794;48.348;7.878;2022-11-11T14:38:33;100624.00;;;13.20
68012;BMP180;54794;48.348;7.878;2022-11-11T14:41:50;100623.00;;;13.30
68012;BMP180;54794;48.348;7.878;2022-11-11T14:47:22;100622.00;;;12.80
68012;BMP180;54794;48.348;7.878;2022-11-11T14:49:54;100626.00;;;12.90
68012;BMP180;54794;48.348;7.878;2022-11-11T14:57:36;100648.00;;;12.40
68012;BMP180;54794;48.348;7.878;2022-11-11T15:02:48;100645.00;;;12.30
68012;BMP180;54794;48.348;7.878;2022-11-11T15:05:46;100642.00;;;12.30
68012;BMP180;54794;48.348;7.878;2022-11-11T15:08:25;100637.00;;;12.30
68012;BMP180;54794;48.348;7.878;2022-11-11T15:14:26;100633.00;;;12.50
68012;BMP180;54794;48.348;7.878;2022-11-11T15:19:55;100640.00;;;12.10
68012;BMP180;54794;48.348;7.878;2022-11-11T15:22:47;100639.00;;;11.70
68012;BMP180;54794;48.348;7.878;2022-11-11T15:32:07;100633.00;;;12.00
68012;BMP180;54794;48.348;7.878;2022-11-11T15:35:06;100631.00;;;12.20
68012;BMP180;54794;48.348;7.878;2022-11-11T15:37:35;100638.00;;;12.10
68012;BMP180;54794;48.348;7.878;2022-11-11T15:40:05;100640.00;;;12.10
68012;BMP180;54794;48.348;7.878;2022-11-11T15:42:42;100638.00;;;11.90
68012;BMP180;54794;48.348;7.878;2022-11-11T15:47:47;100642.00;;;11.80
68012;BMP180;54794;48.348;7.878;2022-11-11T15:50:35;100632.00;;;11.90
68012;BMP180;54794;48.348;7.878;2022-11-11T15:53:03;100637.00;;;11.70
68012;BMP180;54794;48.348;7.878;2022-11-11T15:55:35;100633.00;;;11.60
68012;BMP180;54794;48.348;7.878;2022-11-11T15:58:31;100637.00;;;11.70
68012;BMP180;54794;48.348;7.878;2022-11-11T16:01:03;100642.00;;;11.40
68012;BMP180;54794;48.348;7.878;2022-11-11T16:03:40;100645.00;;;11.40
68012;BMP180;54794;48.348;7.878;2022-11-11T16:06:13;100640.00;;;11.40
68012;BMP180;54794;48.348;7.878;2022-11-11T16:08:43;100635.00;;;11.40
68012;BMP180;54794;48.348;7.878;2022-11-11T16:11:14;100641.00;;;11.40
68012;BMP180;54794;48.348;7.878;2022-11-11T16:13:57;100652.00;;;11.10
68012;BMP180;54794;48.348;7.878;2022-11-11T16:16:36;100656.00;;;11.40
68012;BMP180;54794;48.348;7.878;2022-11-11T16:19:37;100658.00;;;11.10
68012;BMP180;54794;48.348;7.878;2022-11-11T16:22:09;100657.00;;;11.20
68012;BMP180;54794;48.348;7.878;2022-11-11T16:24:39;100657.00;;;11.20
68012;BMP180;54794;48.348;7.878;2022-11-11T16:27:16;100659.00;;;11.40
68012;BMP180;54794;48.348;7.878;2022-11-11T16:29:44;100656.00;;;11.30
68012;BMP180;54794;48.348;7.878;2022-11-11T16:34:52;100653.00;;;11.30
68012;BMP180;54794;48.348;7.878;2022-11-11T16:37:21;100658.00;;;11.00
68012;BMP180;54794;48.348;7.878;2022-11-11T16:39:48;100652.00;;;11.20
68012;BMP180;54794;48.348;7.878;2022-11-11T16:42:26;100656.00;;;11.10
68012;BMP180;54794;48.348;7.878;2022-11-11T16:45:02;100655.00;;;11.30
68012;BMP180;54794;48.348;7.878;2022-11-11T16:55:49;100671.00;;;11.30
68012;BMP180;54794;48.348;7.878;2022-11-11T16:58:21;100670.00;;;11.10
68012;BMP180;54794;48.348;7.878;2022-11-11T17:00:48;100673.00;;;11.00
68012;BMP180;54794;48.348;7.878;2022-11-11T17:03:24;100668.00;;;11.20
68012;BMP180;54794;48.348;7.878;2022-11-11T17:06:01;100662.00;;;11.20
68012;BMP180;54794;48.348;7.878;2022-11-11T17:08:42;100659.00;;;11.20
68012;BMP180;54794;48.348;7.878;2022-11-11T17:14:06;100662.00;;;11.30
68012;BMP180;54794;48.348;7.878;2022-11-11T17:16:33;100673.00;;;11.20
68012;BMP180;54794;48.348;7.878;2022-11-11T17:19:01;100668.00;;;11.00
68012;BMP180;54794;48.348;7.878;2022-11-11T17:21:28;100655.00;;;11.10
68012;BMP180;54794;48.348;7.878;2022-11-11T17:23:55;100655.00;;;11.40
68012;BMP180;54794;48.348;7.878;2022-11-11T17:26:22;100655.00;;;11.30